Ojai, CA

10:42 AM PDT on August 22, 2014 (GMT -0700)
MesoWest Sulphur Mountain CA US LOXWFO | Change Station
CLOSE
Current Station
Personal Weather Station
Location: Ojai, CA
Elevation: 2812 ft
Nearby Weather Stations

Elev 2812 ft 34.41 °N, 119.19 °W | Updated 42 minutes ago

Mostly Cloudy
Mostly Cloudy
72 °F
Feels Like 76 °F
N
0
Wind Variable Wind from North
Gusts 0.0 mph

Today
High -- | Low -- °F
--% Chance of Precip.
Yesterday
High -- | Low -- °F
Precip. -- in
6:22 AM 7:35 PM
Waning Crescent, 7% visible
Pressure 29.99 in
Visibility 10.0 miles
Clouds Mostly Cloudy 1000 ft
Heat Index 76 °F
Dew Point 58 °F
Humidity 62%
Rainfall -999.00 in
Snow Depth Not available.
UV 4 out of 12
Pollen 8.50 out of 12
Ozone Good
Flu Activity Not available.
SPECI KOXR 221731Z 25006KT 10SM BKN010 21/16 A2999 RMK AO2 T02060161

More Conditions Fewer Conditions

Pressure 29.99 in
Visibility 10.0 miles
Clouds Mostly Cloudy 1000 ft
Heat Index 76 °F
Dew Point 58 °F
Humidity 62%
Rainfall -999.00 in
Snow Depth Not available.
UV 4 out of 12
Pollen 8.50 out of 12
Ozone Good
Flu Activity Not available.
SPECI KOXR 221731Z 25006KT 10SM BKN010 21/16 A2999 RMK AO2 T02060161

More Conditions Fewer Conditions

10-Day Weather Forecast

Almanac

Astronomy

Aug. 22, 2014 Rise Set
Actual Time 6:22 AM PDT 7:35 PM PDT
Civil Twilight 5:56 AM PDT 8:01 PM PDT
Nautical Twilight 5:25 AM PDT 8:32 PM PDT
Astronomical Twilight 4:53 AM PDT 9:05 PM PDT
Moon 3:52 AM PDT 5:45 PM PDT
Length of Visible Light 14h 05m
Length of Day
13h 12m
Tomorrow will be 1m 58s shorter.
Waning Crescent, 7% of the Moon is Illuminated
Today
Waning Crescent
Aug 25
New
Sep 2
First Quarter
Sep 8
Full
Sep 15
Last Quarter

Today's Extremes

State Highs State Lows

Community

WunderPhotos

Upload Photos

1,746,206 photos uploaded!

WunderBlogs® & News

Nearby

Air Quality

  Air Quality AQ Index Pollutant
Yesterday Good
OZONE
Current Good
OZONE
Friday Good
OZONE
Friday Good
PM2.5
Saturday Good
OZONE
Saturday Good
PM2.5
Sunday Good
OZONE
Sunday Good
PM2.5
Monday Good
OZONE
Monday Good
PM2.5
Tuesday Moderate
OZONE
Tuesday Good
PM2.5
Wednesday Moderate
OZONE
Wednesday Good
PM2.5

Snow Depth

Station Depth Elevation
Leavitt Lake 0 in 9400 ft
Leavitt Meadows 0 in 7200 ft
Summit Meadow 0 in 9122 ft
Blue Lakes 0 in 8000 ft
Forestdale Creek 0 in 8029 ft

Earthquake Activity

City Distance Mag. Time & Date
King City, California 161 miles 2.7 10:26 PM PDT
2014-08-15
Minimum magnitude displayed is 2.5.

Coastal Water Temperatures

Place Temperature
Santa Monica Pier 70.0 °F
Los Angeles, CA 68.0 °F
Port San Luis, CA 62.1 °F

Nearby Weather Stations